sensor_id;sensor_type;location;lat;lon;timestamp;P1;durP1;ratioP1;P2;durP2;ratioP2
27618;SDS011;15039;50.830;4.730;2022-12-18T00:02:05;28.60;;;16.98;;
27618;SDS011;15039;50.830;4.730;2022-12-18T00:04:31;32.75;;;16.77;;
27618;SDS011;15039;50.830;4.730;2022-12-18T00:06:57;28.77;;;16.80;;
27618;SDS011;15039;50.830;4.730;2022-12-18T00:09:22;33.67;;;17.52;;
27618;SDS011;15039;50.830;4.730;2022-12-18T00:11:48;30.50;;;17.33;;
27618;SDS011;15039;50.830;4.730;2022-12-18T00:14:14;33.63;;;18.35;;
27618;SDS011;15039;50.830;4.730;2022-12-18T00:16:42;33.20;;;18.02;;
27618;SDS011;15039;50.830;4.730;2022-12-18T00:19:09;29.90;;;17.73;;
27618;SDS011;15039;50.830;4.730;2022-12-18T00:21:35;32.47;;;17.75;;
27618;SDS011;15039;50.830;4.730;2022-12-18T00:24:01;36.58;;;18.92;;
27618;SDS011;15039;50.830;4.730;2022-12-18T00:26:31;34.47;;;18.48;;
27618;SDS011;15039;50.830;4.730;2022-12-18T00:28:59;31.02;;;17.63;;
27618;SDS011;15039;50.830;4.730;2022-12-18T00:31:26;35.25;;;18.55;;
27618;SDS011;15039;50.830;4.730;2022-12-18T00:33:53;34.10;;;18.35;;
27618;SDS011;15039;50.830;4.730;2022-12-18T00:36:21;31.30;;;18.08;;
27618;SDS011;15039;50.830;4.730;2022-12-18T00:38:49;32.95;;;18.10;;
27618;SDS011;15039;50.830;4.730;2022-12-18T00:41:15;30.63;;;17.33;;
27618;SDS011;15039;50.830;4.730;2022-12-18T00:44:02;36.60;;;17.98;;
27618;SDS011;15039;50.830;4.730;2022-12-18T00:46:29;32.70;;;17.80;;
27618;SDS011;15039;50.830;4.730;2022-12-18T00:48:55;33.78;;;18.23;;
27618;SDS011;15039;50.830;4.730;2022-12-18T00:51:20;31.83;;;18.15;;
27618;SDS011;15039;50.830;4.730;2022-12-18T00:53:46;28.83;;;16.30;;
27618;SDS011;15039;50.830;4.730;2022-12-18T00:56:11;33.08;;;18.38;;
27618;SDS011;15039;50.830;4.730;2022-12-18T00:58:37;31.75;;;17.73;;
27618;SDS011;15039;50.830;4.730;2022-12-18T01:01:06;32.00;;;16.85;;
27618;SDS011;15039;50.830;4.730;2022-12-18T01:03:32;33.85;;;17.35;;
27618;SDS011;15039;50.830;4.730;2022-12-18T01:05:58;28.00;;;16.02;;
27618;SDS011;15039;50.830;4.730;2022-12-18T01:08:23;32.17;;;17.88;;
27618;SDS011;15039;50.830;4.730;2022-12-18T01:10:49;28.60;;;16.45;;
27618;SDS011;15039;50.830;4.730;2022-12-18T01:13:15;29.40;;;17.30;;
27618;SDS011;15039;50.830;4.730;2022-12-18T01:15:47;33.75;;;17.27;;
27618;SDS011;15039;50.830;4.730;2022-12-18T01:18:14;30.52;;;16.02;;
27618;SDS011;15039;50.830;4.730;2022-12-18T01:20:39;31.23;;;17.08;;
27618;SDS011;15039;50.830;4.730;2022-12-18T01:23:05;29.83;;;17.35;;
27618;SDS011;15039;50.830;4.730;2022-12-18T01:25:30;31.10;;;16.45;;
27618;SDS011;15039;50.830;4.730;2022-12-18T01:27:56;30.77;;;17.35;;
27618;SDS011;15039;50.830;4.730;2022-12-18T01:30:22;28.88;;;16.85;;
27618;SDS011;15039;50.830;4.730;2022-12-18T01:32:47;29.40;;;17.30;;
27618;SDS011;15039;50.830;4.730;2022-12-18T01:35:13;30.77;;;17.15;;
27618;SDS011;15039;50.830;4.730;2022-12-18T01:37:39;29.45;;;17.17;;
27618;SDS011;15039;50.830;4.730;2022-12-18T01:40:05;30.88;;;16.92;;
27618;SDS011;15039;50.830;4.730;2022-12-18T01:42:31;28.98;;;16.58;;
27618;SDS011;15039;50.830;4.730;2022-12-18T01:47:53;28.92;;;15.85;;
27618;SDS011;15039;50.830;4.730;2022-12-18T01:50:35;29.63;;;16.70;;
27618;SDS011;15039;50.830;4.730;2022-12-18T01:53:07;28.58;;;15.15;;
27618;SDS011;15039;50.830;4.730;2022-12-18T01:58:41;26.77;;;15.43;;
27618;SDS011;15039;50.830;4.730;2022-12-18T02:01:13;32.65;;;14.93;;
27618;SDS011;15039;50.830;4.730;2022-12-18T02:03:43;27.27;;;15.02;;
27618;SDS011;15039;50.830;4.730;2022-12-18T02:06:12;30.65;;;15.25;;
27618;SDS011;15039;50.830;4.730;2022-12-18T02:11:48;28.98;;;15.90;;
27618;SDS011;15039;50.830;4.730;2022-12-18T02:14:38;35.90;;;17.45;;
27618;SDS011;15039;50.830;4.730;2022-12-18T02:17:24;30.90;;;16.53;;
27618;SDS011;15039;50.830;4.730;2022-12-18T02:20:16;31.92;;;16.65;;
27618;SDS011;15039;50.830;4.730;2022-12-18T02:28:20;30.13;;;17.25;;
27618;SDS011;15039;50.830;4.730;2022-12-18T02:30:48;36.70;;;17.38;;
27618;SDS011;15039;50.830;4.730;2022-12-18T02:33:15;31.85;;;17.67;;
27618;SDS011;15039;50.830;4.730;2022-12-18T02:35:44;31.20;;;16.92;;
27618;SDS011;15039;50.830;4.730;2022-12-18T02:38:11;32.78;;;18.08;;
27618;SDS011;15039;50.830;4.730;2022-12-18T02:40:38;32.22;;;17.02;;
27618;SDS011;15039;50.830;4.730;2022-12-18T02:43:12;32.58;;;17.80;;
27618;SDS011;15039;50.830;4.730;2022-12-18T02:45:46;33.80;;;17.73;;
27618;SDS011;15039;50.830;4.730;2022-12-18T02:48:13;31.27;;;17.67;;
27618;SDS011;15039;50.830;4.730;2022-12-18T02:50:41;30.88;;;17.15;;
27618;SDS011;15039;50.830;4.730;2022-12-18T03:01:16;27.08;;;15.73;;
27618;SDS011;15039;50.830;4.730;2022-12-18T03:03:55;27.33;;;15.20;;
27618;SDS011;15039;50.830;4.730;2022-12-18T03:06:28;27.42;;;14.65;;
27618;SDS011;15039;50.830;4.730;2022-12-18T03:09:04;25.02;;;14.05;;
27618;SDS011;15039;50.830;4.730;2022-12-18T03:11:39;23.80;;;13.77;;
27618;SDS011;15039;50.830;4.730;2022-12-18T03:14:28;26.67;;;14.43;;
27618;SDS011;15039;50.830;4.730;2022-12-18T03:16:57;22.42;;;13.57;;
27618;SDS011;15039;50.830;4.730;2022-12-18T03:19:28;24.08;;;13.52;;
27618;SDS011;15039;50.830;4.730;2022-12-18T03:21:57;21.38;;;13.18;;
27618;SDS011;15039;50.830;4.730;2022-12-18T03:24:27;24.15;;;12.82;;
27618;SDS011;15039;50.830;4.730;2022-12-18T03:26:54;23.52;;;12.68;;
27618;SDS011;15039;50.830;4.730;2022-12-18T03:29:45;26.95;;;14.02;;
27618;SDS011;15039;50.830;4.730;2022-12-18T03:32:16;24.52;;;12.65;;
27618;SDS011;15039;50.830;4.730;2022-12-18T03:34:51;20.70;;;12.52;;
27618;SDS011;15039;50.830;4.730;2022-12-18T03:37:18;21.98;;;12.25;;
27618;SDS011;15039;50.830;4.730;2022-12-18T03:39:44;25.92;;;12.02;;
27618;SDS011;15039;50.830;4.730;2022-12-18T03:45:06;20.83;;;12.45;;
27618;SDS011;15039;50.830;4.730;2022-12-18T03:55:37;22.88;;;13.18;;
27618;SDS011;15039;50.830;4.730;2022-12-18T03:58:03;22.67;;;12.90;;
27618;SDS011;15039;50.830;4.730;2022-12-18T04:00:31;23.23;;;13.07;;
27618;SDS011;15039;50.830;4.730;2022-12-18T04:02:57;22.42;;;12.65;;
27618;SDS011;15039;50.830;4.730;2022-12-18T04:05:26;22.63;;;13.70;;
27618;SDS011;15039;50.830;4.730;2022-12-18T04:07:53;21.30;;;12.73;;
27618;SDS011;15039;50.830;4.730;2022-12-18T04:10:21;22.88;;;12.50;;
27618;SDS011;15039;50.830;4.730;2022-12-18T04:12:46;25.63;;;13.82;;
27618;SDS011;15039;50.830;4.730;2022-12-18T04:15:12;25.30;;;14.38;;
27618;SDS011;15039;50.830;4.730;2022-12-18T04:17:39;21.98;;;13.48;;
27618;SDS011;15039;50.830;4.730;2022-12-18T04:20:14;24.98;;;13.65;;
27618;SDS011;15039;50.830;4.730;2022-12-18T04:22:40;28.80;;;14.00;;
27618;SDS011;15039;50.830;4.730;2022-12-18T04:25:06;23.73;;;13.00;;
27618;SDS011;15039;50.830;4.730;2022-12-18T04:27:32;24.08;;;13.38;;
27618;SDS011;15039;50.830;4.730;2022-12-18T04:29:58;22.45;;;13.57;;
27618;SDS011;15039;50.830;4.730;2022-12-18T04:32:24;22.63;;;12.55;;
27618;SDS011;15039;50.830;4.730;2022-12-18T04:34:49;23.92;;;13.88;;
27618;SDS011;15039;50.830;4.730;2022-12-18T04:37:15;21.83;;;13.10;;
27618;SDS011;15039;50.830;4.730;2022-12-18T04:39:41;21.80;;;12.55;;
27618;SDS011;15039;50.830;4.730;2022-12-18T04:42:06;21.90;;;13.00;;
27618;SDS011;15039;50.830;4.730;2022-12-18T04:44:32;22.15;;;13.23;;
27618;SDS011;15039;50.830;4.730;2022-12-18T04:46:57;24.65;;;13.55;;
27618;SDS011;15039;50.830;4.730;2022-12-18T04:49:23;27.02;;;13.48;;
27618;SDS011;15039;50.830;4.730;2022-12-18T04:51:49;23.02;;;13.25;;
27618;SDS011;15039;50.830;4.730;2022-12-18T04:54:14;21.08;;;12.68;;
27618;SDS011;15039;50.830;4.730;2022-12-18T04:56:40;20.85;;;12.75;;
27618;SDS011;15039;50.830;4.730;2022-12-18T04:59:05;22.00;;;12.40;;
27618;SDS011;15039;50.830;4.730;2022-12-18T05:01:31;21.83;;;12.82;;
27618;SDS011;15039;50.830;4.730;2022-12-18T05:03:57;25.33;;;12.40;;
27618;SDS011;15039;50.830;4.730;2022-12-18T05:06:22;20.45;;;11.52;;
27618;SDS011;15039;50.830;4.730;2022-12-18T05:08:48;21.35;;;12.05;;
27618;SDS011;15039;50.830;4.730;2022-12-18T05:11:14;18.98;;;11.82;;
27618;SDS011;15039;50.830;4.730;2022-12-18T05:13:40;20.05;;;12.05;;
27618;SDS011;15039;50.830;4.730;2022-12-18T05:16:07;17.55;;;11.10;;
27618;SDS011;15039;50.830;4.730;2022-12-18T05:18:33;20.85;;;12.15;;
27618;SDS011;15039;50.830;4.730;2022-12-18T05:20:59;18.80;;;11.27;;
27618;SDS011;15039;50.830;4.730;2022-12-18T05:23:25;18.35;;;11.82;;
27618;SDS011;15039;50.830;4.730;2022-12-18T05:25:55;23.08;;;12.73;;
27618;SDS011;15039;50.830;4.730;2022-12-18T05:28:22;19.48;;;12.25;;
27618;SDS011;15039;50.830;4.730;2022-12-18T05:30:50;19.65;;;11.57;;
27618;SDS011;15039;50.830;4.730;2022-12-18T05:33:17;17.02;;;10.68;;
27618;SDS011;15039;50.830;4.730;2022-12-18T05:35:44;18.70;;;11.02;;
27618;SDS011;15039;50.830;4.730;2022-12-18T05:38:14;21.95;;;11.68;;
27618;SDS011;15039;50.830;4.730;2022-12-18T05:40:41;19.50;;;11.15;;
27618;SDS011;15039;50.830;4.730;2022-12-18T05:43:08;19.95;;;11.65;;
27618;SDS011;15039;50.830;4.730;2022-12-18T05:45:36;19.25;;;12.00;;
27618;SDS011;15039;50.830;4.730;2022-12-18T05:48:03;18.60;;;11.10;;
27618;SDS011;15039;50.830;4.730;2022-12-18T05:50:29;19.50;;;12.32;;
27618;SDS011;15039;50.830;4.730;2022-12-18T05:52:54;22.17;;;12.68;;
27618;SDS011;15039;50.830;4.730;2022-12-18T05:55:20;25.30;;;12.50;;
27618;SDS011;15039;50.830;4.730;2022-12-18T05:57:46;19.98;;;11.70;;
27618;SDS011;15039;50.830;4.730;2022-12-18T06:00:11;23.10;;;12.57;;
27618;SDS011;15039;50.830;4.730;2022-12-18T06:02:38;24.48;;;12.63;;
27618;SDS011;15039;50.830;4.730;2022-12-18T06:05:04;19.77;;;11.98;;
27618;SDS011;15039;50.830;4.730;2022-12-18T06:07:30;19.15;;;12.07;;
27618;SDS011;15039;50.830;4.730;2022-12-18T06:09:56;21.15;;;12.10;;
27618;SDS011;15039;50.830;4.730;2022-12-18T06:12:21;22.00;;;12.43;;
27618;SDS011;15039;50.830;4.730;2022-12-18T06:14:47;21.98;;;13.45;;
27618;SDS011;15039;50.830;4.730;2022-12-18T06:17:13;20.73;;;12.65;;
27618;SDS011;15039;50.830;4.730;2022-12-18T06:19:38;21.13;;;12.98;;
27618;SDS011;15039;50.830;4.730;2022-12-18T06:22:04;20.35;;;12.02;;
27618;SDS011;15039;50.830;4.730;2022-12-18T06:24:29;28.27;;;13.75;;
27618;SDS011;15039;50.830;4.730;2022-12-18T06:26:55;20.83;;;11.85;;
27618;SDS011;15039;50.830;4.730;2022-12-18T06:29:21;23.52;;;11.60;;
27618;SDS011;15039;50.830;4.730;2022-12-18T06:31:46;15.25;;;9.93;;
27618;SDS011;15039;50.830;4.730;2022-12-18T06:34:12;23.60;;;12.63;;
27618;SDS011;15039;50.830;4.730;2022-12-18T06:36:37;19.85;;;10.95;;
27618;SDS011;15039;50.830;4.730;2022-12-18T06:39:03;20.45;;;11.40;;
27618;SDS011;15039;50.830;4.730;2022-12-18T06:41:29;20.73;;;11.30;;
27618;SDS011;15039;50.830;4.730;2022-12-18T06:43:54;20.48;;;11.30;;
27618;SDS011;15039;50.830;4.730;2022-12-18T06:46:20;16.70;;;11.00;;
27618;SDS011;15039;50.830;4.730;2022-12-18T06:48:46;19.05;;;11.27;;
27618;SDS011;15039;50.830;4.730;2022-12-18T06:51:17;18.48;;;11.75;;
27618;SDS011;15039;50.830;4.730;2022-12-18T06:53:47;20.15;;;11.32;;
27618;SDS011;15039;50.830;4.730;2022-12-18T06:56:12;18.63;;;10.80;;
27618;SDS011;15039;50.830;4.730;2022-12-18T06:58:38;17.23;;;10.93;;
27618;SDS011;15039;50.830;4.730;2022-12-18T07:01:05;18.98;;;11.50;;
27618;SDS011;15039;50.830;4.730;2022-12-18T07:03:33;17.27;;;10.43;;
27618;SDS011;15039;50.830;4.730;2022-12-18T07:05:59;17.23;;;9.77;;
27618;SDS011;15039;50.830;4.730;2022-12-18T07:08:25;15.48;;;9.85;;
27618;SDS011;15039;50.830;4.730;2022-12-18T07:10:50;16.95;;;9.30;;
27618;SDS011;15039;50.830;4.730;2022-12-18T07:13:16;15.90;;;9.73;;
27618;SDS011;15039;50.830;4.730;2022-12-18T07:15:42;15.15;;;10.23;;
27618;SDS011;15039;50.830;4.730;2022-12-18T07:18:09;15.55;;;10.15;;
27618;SDS011;15039;50.830;4.730;2022-12-18T07:20:35;16.42;;;9.82;;
27618;SDS011;15039;50.830;4.730;2022-12-18T07:23:04;16.08;;;9.77;;
27618;SDS011;15039;50.830;4.730;2022-12-18T07:25:33;14.82;;;9.05;;
27618;SDS011;15039;50.830;4.730;2022-12-18T07:28:02;13.48;;;8.77;;
27618;SDS011;15039;50.830;4.730;2022-12-18T07:30:28;16.88;;;9.70;;
27618;SDS011;15039;50.830;4.730;2022-12-18T07:32:54;15.70;;;9.45;;
27618;SDS011;15039;50.830;4.730;2022-12-18T07:35:20;14.98;;;9.13;;
27618;SDS011;15039;50.830;4.730;2022-12-18T07:37:45;14.75;;;9.48;;
27618;SDS011;15039;50.830;4.730;2022-12-18T07:40:11;15.95;;;9.43;;
27618;SDS011;15039;50.830;4.730;2022-12-18T07:42:37;14.15;;;9.05;;
27618;SDS011;15039;50.830;4.730;2022-12-18T07:45:03;14.90;;;9.35;;
27618;SDS011;15039;50.830;4.730;2022-12-18T07:47:34;13.18;;;8.57;;
27618;SDS011;15039;50.830;4.730;2022-12-18T07:50:01;12.88;;;8.65;;
27618;SDS011;15039;50.830;4.730;2022-12-18T07:52:27;20.30;;;9.43;;
27618;SDS011;15039;50.830;4.730;2022-12-18T07:54:53;20.15;;;9.63;;
27618;SDS011;15039;50.830;4.730;2022-12-18T07:57:18;14.02;;;9.23;;
27618;SDS011;15039;50.830;4.730;2022-12-18T07:59:44;14.60;;;8.50;;
27618;SDS011;15039;50.830;4.730;2022-12-18T08:02:09;16.90;;;9.25;;
27618;SDS011;15039;50.830;4.730;2022-12-18T08:04:35;13.35;;;8.70;;
27618;SDS011;15039;50.830;4.730;2022-12-18T08:07:01;15.05;;;8.95;;
27618;SDS011;15039;50.830;4.730;2022-12-18T08:09:26;11.55;;;7.60;;
27618;SDS011;15039;50.830;4.730;2022-12-18T08:11:52;11.38;;;7.78;;
27618;SDS011;15039;50.830;4.730;2022-12-18T08:14:18;14.38;;;8.57;;
27618;SDS011;15039;50.830;4.730;2022-12-18T08:16:43;11.57;;;7.93;;
27618;SDS011;15039;50.830;4.730;2022-12-18T08:19:09;10.40;;;7.20;;
27618;SDS011;15039;50.830;4.730;2022-12-18T08:21:35;12.80;;;8.43;;
27618;SDS011;15039;50.830;4.730;2022-12-18T08:24:01;13.88;;;7.75;;
27618;SDS011;15039;50.830;4.730;2022-12-18T08:26:27;14.13;;;8.38;;
27618;SDS011;15039;50.830;4.730;2022-12-18T08:28:56;12.38;;;8.48;;
27618;SDS011;15039;50.830;4.730;2022-12-18T08:31:23;12.77;;;8.02;;
27618;SDS011;15039;50.830;4.730;2022-12-18T08:33:51;11.88;;;7.70;;
27618;SDS011;15039;50.830;4.730;2022-12-18T08:36:17;12.10;;;7.70;;
27618;SDS011;15039;50.830;4.730;2022-12-18T08:38:44;12.25;;;7.35;;
27618;SDS011;15039;50.830;4.730;2022-12-18T08:41:10;10.80;;;7.43;;
27618;SDS011;15039;50.830;4.730;2022-12-18T08:43:37;16.42;;;8.05;;
27618;SDS011;15039;50.830;4.730;2022-12-18T08:46:22;10.75;;;7.28;;
27618;SDS011;15039;50.830;4.730;2022-12-18T08:48:52;10.25;;;7.05;;
27618;SDS011;15039;50.830;4.730;2022-12-18T08:51:20;11.15;;;7.32;;
27618;SDS011;15039;50.830;4.730;2022-12-18T08:53:46;10.38;;;6.10;;
27618;SDS011;15039;50.830;4.730;2022-12-18T08:56:12;9.43;;;6.35;;
27618;SDS011;15039;50.830;4.730;2022-12-18T08:58:38;11.73;;;6.60;;
27618;SDS011;15039;50.830;4.730;2022-12-18T09:01:05;8.27;;;6.18;;
27618;SDS011;15039;50.830;4.730;2022-12-18T09:05:59;11.93;;;6.40;;
27618;SDS011;15039;50.830;4.730;2022-12-18T09:08:25;11.00;;;6.82;;
27618;SDS011;15039;50.830;4.730;2022-12-18T09:10:51;9.93;;;6.28;;
27618;SDS011;15039;50.830;4.730;2022-12-18T09:13:17;10.00;;;6.25;;
27618;SDS011;15039;50.830;4.730;2022-12-18T09:15:50;9.32;;;6.70;;
27618;SDS011;15039;50.830;4.730;2022-12-18T09:18:18;8.73;;;6.57;;
27618;SDS011;15039;50.830;4.730;2022-12-18T09:20:45;10.32;;;6.88;;
27618;SDS011;15039;50.830;4.730;2022-12-18T09:23:11;10.65;;;6.65;;
27618;SDS011;15039;50.830;4.730;2022-12-18T09:25:37;10.63;;;6.70;;
27618;SDS011;15039;50.830;4.730;2022-12-18T09:28:04;8.45;;;6.60;;
27618;SDS011;15039;50.830;4.730;2022-12-18T09:30:40;10.35;;;6.80;;
27618;SDS011;15039;50.830;4.730;2022-12-18T09:33:08;9.52;;;6.60;;
27618;SDS011;15039;50.830;4.730;2022-12-18T09:35:37;7.65;;;6.20;;
27618;SDS011;15039;50.830;4.730;2022-12-18T09:38:03;8.82;;;6.47;;
27618;SDS011;15039;50.830;4.730;2022-12-18T09:40:32;10.07;;;6.65;;
27618;SDS011;15039;50.830;4.730;2022-12-18T09:43:03;9.75;;;6.30;;
27618;SDS011;15039;50.830;4.730;2022-12-18T09:45:30;9.00;;;6.32;;
27618;SDS011;15039;50.830;4.730;2022-12-18T09:48:30;7.95;;;6.00;;
27618;SDS011;15039;50.830;4.730;2022-12-18T09:50:59;9.55;;;6.32;;
27618;SDS011;15039;50.830;4.730;2022-12-18T09:53:35;8.75;;;6.22;;
27618;SDS011;15039;50.830;4.730;2022-12-18T09:56:04;9.05;;;6.82;;
27618;SDS011;15039;50.830;4.730;2022-12-18T09:58:31;10.20;;;6.32;;
27618;SDS011;15039;50.830;4.730;2022-12-18T10:01:10;9.40;;;6.30;;
27618;SDS011;15039;50.830;4.730;2022-12-18T10:03:37;8.38;;;6.18;;
27618;SDS011;15039;50.830;4.730;2022-12-18T10:06:11;9.25;;;6.65;;
27618;SDS011;15039;50.830;4.730;2022-12-18T10:20:16;7.78;;;6.05;;
27618;SDS011;15039;50.830;4.730;2022-12-18T10:25:54;8.85;;;6.35;;
27618;SDS011;15039;50.830;4.730;2022-12-18T10:28:35;7.95;;;5.60;;
27618;SDS011;15039;50.830;4.730;2022-12-18T10:31:07;9.25;;;6.50;;
27618;SDS011;15039;50.830;4.730;2022-12-18T10:33:41;9.50;;;6.70;;
27618;SDS011;15039;50.830;4.730;2022-12-18T10:36:07;10.40;;;6.88;;
27618;SDS011;15039;50.830;4.730;2022-12-18T10:38:34;9.98;;;6.90;;
27618;SDS011;15039;50.830;4.730;2022-12-18T10:43:45;9.48;;;7.18;;
27618;SDS011;15039;50.830;4.730;2022-12-18T10:48:40;10.00;;;7.30;;
27618;SDS011;15039;50.830;4.730;2022-12-18T10:53:50;10.93;;;7.25;;
27618;SDS011;15039;50.830;4.730;2022-12-18T10:56:25;10.68;;;7.15;;
27618;SDS011;15039;50.830;4.730;2022-12-18T10:59:12;9.00;;;7.50;;
27618;SDS011;15039;50.830;4.730;2022-12-18T11:01:58;10.70;;;7.57;;
27618;SDS011;15039;50.830;4.730;2022-12-18T11:04:25;10.63;;;6.78;;
27618;SDS011;15039;50.830;4.730;2022-12-18T11:06:56;10.23;;;7.15;;
27618;SDS011;15039;50.830;4.730;2022-12-18T11:09:25;12.15;;;7.50;;
27618;SDS011;15039;50.830;4.730;2022-12-18T11:11:57;11.57;;;7.47;;
27618;SDS011;15039;50.830;4.730;2022-12-18T11:19:46;10.20;;;7.28;;
27618;SDS011;15039;50.830;4.730;2022-12-18T11:22:20;10.43;;;7.25;;
27618;SDS011;15039;50.830;4.730;2022-12-18T11:24:52;10.38;;;7.60;;
27618;SDS011;15039;50.830;4.730;2022-12-18T11:27:37;11.27;;;7.50;;
27618;SDS011;15039;50.830;4.730;2022-12-18T11:30:24;9.45;;;7.22;;
27618;SDS011;15039;50.830;4.730;2022-12-18T11:32:59;11.93;;;7.50;;
27618;SDS011;15039;50.830;4.730;2022-12-18T11:38:06;10.70;;;7.00;;
27618;SDS011;15039;50.830;4.730;2022-12-18T11:40:54;11.30;;;7.78;;
27618;SDS011;15039;50.830;4.730;2022-12-18T11:43:27;11.55;;;7.30;;
27618;SDS011;15039;50.830;4.730;2022-12-18T11:46:04;12.27;;;7.85;;
27618;SDS011;15039;50.830;4.730;2022-12-18T11:48:36;11.55;;;7.90;;
27618;SDS011;15039;50.830;4.730;2022-12-18T11:51:09;10.82;;;7.35;;
27618;SDS011;15039;50.830;4.730;2022-12-18T11:53:37;12.30;;;8.07;;
27618;SDS011;15039;50.830;4.730;2022-12-18T11:58:54;11.57;;;8.20;;
27618;SDS011;15039;50.830;4.730;2022-12-18T12:07:42;11.60;;;8.25;;
27618;SDS011;15039;50.830;4.730;2022-12-18T12:18:17;11.63;;;8.32;;
27618;SDS011;15039;50.830;4.730;2022-12-18T12:21:09;9.73;;;7.82;;
27618;SDS011;15039;50.830;4.730;2022-12-18T12:24:03;10.88;;;7.20;;
27618;SDS011;15039;50.830;4.730;2022-12-18T12:32:30;9.50;;;7.07;;
27618;SDS011;15039;50.830;4.730;2022-12-18T12:37:49;10.40;;;7.63;;
27618;SDS011;15039;50.830;4.730;2022-12-18T12:40:27;10.65;;;8.02;;
27618;SDS011;15039;50.830;4.730;2022-12-18T12:42:58;12.02;;;8.73;;
27618;SDS011;15039;50.830;4.730;2022-12-18T12:45:44;11.65;;;8.10;;
27618;SDS011;15039;50.830;4.730;2022-12-18T12:48:27;13.23;;;9.00;;
27618;SDS011;15039;50.830;4.730;2022-12-18T12:51:04;12.25;;;8.52;;
27618;SDS011;15039;50.830;4.730;2022-12-18T12:53:54;12.07;;;8.73;;
27618;SDS011;15039;50.830;4.730;2022-12-18T12:56:22;11.38;;;8.48;;
27618;SDS011;15039;50.830;4.730;2022-12-18T13:01:51;16.30;;;9.40;;
27618;SDS011;15039;50.830;4.730;2022-12-18T13:04:48;11.52;;;8.35;;
27618;SDS011;15039;50.830;4.730;2022-12-18T13:12:58;11.55;;;8.02;;
27618;SDS011;15039;50.830;4.730;2022-12-18T13:18:02;12.05;;;8.18;;
27618;SDS011;15039;50.830;4.730;2022-12-18T13:20:33;12.15;;;8.20;;
27618;SDS011;15039;50.830;4.730;2022-12-18T13:23:01;12.90;;;8.77;;
27618;SDS011;15039;50.830;4.730;2022-12-18T13:28:21;12.43;;;8.60;;
27618;SDS011;15039;50.830;4.730;2022-12-18T13:30:57;10.48;;;8.00;;
27618;SDS011;15039;50.830;4.730;2022-12-18T13:39:09;15.65;;;8.82;;
27618;SDS011;15039;50.830;4.730;2022-12-18T13:41:34;12.95;;;8.80;;
27618;SDS011;15039;50.830;4.730;2022-12-18T13:44:45;11.90;;;8.20;;
27618;SDS011;15039;50.830;4.730;2022-12-18T13:46:49;13.55;;;9.32;;
27618;SDS011;15039;50.830;4.730;2022-12-18T13:49:23;13.10;;;8.90;;
27618;SDS011;15039;50.830;4.730;2022-12-18T13:52:19;12.50;;;8.85;;
27618;SDS011;15039;50.830;4.730;2022-12-18T13:54:52;13.57;;;9.52;;
27618;SDS011;15039;50.830;4.730;2022-12-18T13:59:55;14.90;;;10.05;;
27618;SDS011;15039;50.830;4.730;2022-12-18T14:02:26;13.10;;;8.82;;
27618;SDS011;15039;50.830;4.730;2022-12-18T14:04:53;12.50;;;8.70;;
27618;SDS011;15039;50.830;4.730;2022-12-18T14:09:54;16.95;;;11.27;;
27618;SDS011;15039;50.830;4.730;2022-12-18T14:12:25;19.63;;;11.82;;
27618;SDS011;15039;50.830;4.730;2022-12-18T14:18:12;13.77;;;10.13;;
27618;SDS011;15039;50.830;4.730;2022-12-18T14:20:50;16.38;;;12.23;;
27618;SDS011;15039;50.830;4.730;2022-12-18T14:23:28;17.85;;;10.68;;
27618;SDS011;15039;50.830;4.730;2022-12-18T14:25:54;14.73;;;10.95;;
27618;SDS011;15039;50.830;4.730;2022-12-18T14:28:20;17.55;;;10.60;;
27618;SDS011;15039;50.830;4.730;2022-12-18T14:30:50;15.77;;;10.68;;
27618;SDS011;15039;50.830;4.730;2022-12-18T14:33:18;14.35;;;10.27;;
27618;SDS011;15039;50.830;4.730;2022-12-18T14:38:28;16.15;;;11.48;;
27618;SDS011;15039;50.830;4.730;2022-12-18T14:40:58;18.02;;;12.55;;
27618;SDS011;15039;50.830;4.730;2022-12-18T14:43:24;18.50;;;12.43;;
27618;SDS011;15039;50.830;4.730;2022-12-18T14:45:51;16.90;;;11.02;;
27618;SDS011;15039;50.830;4.730;2022-12-18T14:48:19;13.98;;;10.00;;
27618;SDS011;15039;50.830;4.730;2022-12-18T14:53:56;16.13;;;10.75;;
27618;SDS011;15039;50.830;4.730;2022-12-18T14:56:37;18.58;;;12.15;;
27618;SDS011;15039;50.830;4.730;2022-12-18T14:59:16;19.33;;;12.68;;
27618;SDS011;15039;50.830;4.730;2022-12-18T15:02:42;20.48;;;12.25;;
27618;SDS011;15039;50.830;4.730;2022-12-18T15:04:43;18.75;;;12.10;;
27618;SDS011;15039;50.830;4.730;2022-12-18T15:09:35;18.35;;;12.27;;
27618;SDS011;15039;50.830;4.730;2022-12-18T15:12:01;19.10;;;11.82;;
27618;SDS011;15039;50.830;4.730;2022-12-18T15:16:57;15.95;;;11.40;;
27618;SDS011;15039;50.830;4.730;2022-12-18T15:19:37;17.17;;;11.55;;
27618;SDS011;15039;50.830;4.730;2022-12-18T15:22:14;16.67;;;11.57;;
27618;SDS011;15039;50.830;4.730;2022-12-18T15:24:45;16.65;;;11.73;;
27618;SDS011;15039;50.830;4.730;2022-12-18T15:30:03;16.13;;;11.10;;
27618;SDS011;15039;50.830;4.730;2022-12-18T15:32:42;17.27;;;11.68;;
27618;SDS011;15039;50.830;4.730;2022-12-18T15:35:22;18.83;;;12.40;;
27618;SDS011;15039;50.830;4.730;2022-12-18T15:37:50;17.95;;;11.57;;
27618;SDS011;15039;50.830;4.730;2022-12-18T15:40:17;30.42;;;18.98;;
27618;SDS011;15039;50.830;4.730;2022-12-18T15:42:45;19.02;;;11.70;;
27618;SDS011;15039;50.830;4.730;2022-12-18T15:45:31;18.70;;;13.13;;
27618;SDS011;15039;50.830;4.730;2022-12-18T15:47:56;20.58;;;12.30;;
27618;SDS011;15039;50.830;4.730;2022-12-18T15:50:22;17.98;;;12.07;;
27618;SDS011;15039;50.830;4.730;2022-12-18T15:52:49;17.73;;;12.15;;
27618;SDS011;15039;50.830;4.730;2022-12-18T15:55:17;20.30;;;12.75;;
27618;SDS011;15039;50.830;4.730;2022-12-18T15:58:04;22.92;;;13.88;;
27618;SDS011;15039;50.830;4.730;2022-12-18T16:00:31;19.65;;;11.73;;
27618;SDS011;15039;50.830;4.730;2022-12-18T16:02:58;20.38;;;12.43;;
27618;SDS011;15039;50.830;4.730;2022-12-18T16:05:23;19.05;;;12.48;;
27618;SDS011;15039;50.830;4.730;2022-12-18T16:07:50;18.83;;;11.80;;
27618;SDS011;15039;50.830;4.730;2022-12-18T16:10:17;19.92;;;12.50;;
27618;SDS011;15039;50.830;4.730;2022-12-18T16:12:43;20.70;;;12.95;;
27618;SDS011;15039;50.830;4.730;2022-12-18T16:15:09;20.40;;;13.13;;
27618;SDS011;15039;50.830;4.730;2022-12-18T16:17:38;18.33;;;12.25;;
27618;SDS011;15039;50.830;4.730;2022-12-18T16:20:05;18.77;;;12.90;;
27618;SDS011;15039;50.830;4.730;2022-12-18T16:22:37;20.27;;;12.73;;
27618;SDS011;15039;50.830;4.730;2022-12-18T16:25:03;21.60;;;13.57;;
27618;SDS011;15039;50.830;4.730;2022-12-18T16:27:30;19.05;;;12.52;;
27618;SDS011;15039;50.830;4.730;2022-12-18T16:29:55;22.05;;;14.88;;
27618;SDS011;15039;50.830;4.730;2022-12-18T16:32:21;18.15;;;12.10;;
27618;SDS011;15039;50.830;4.730;2022-12-18T16:34:47;20.42;;;12.82;;
27618;SDS011;15039;50.830;4.730;2022-12-18T16:37:14;25.05;;;14.98;;
27618;SDS011;15039;50.830;4.730;2022-12-18T16:39:40;21.05;;;12.65;;
27618;SDS011;15039;50.830;4.730;2022-12-18T16:42:16;21.35;;;14.77;;
27618;SDS011;15039;50.830;4.730;2022-12-18T16:44:44;17.67;;;12.50;;
27618;SDS011;15039;50.830;4.730;2022-12-18T16:47:10;22.17;;;13.75;;
27618;SDS011;15039;50.830;4.730;2022-12-18T16:49:36;26.50;;;16.42;;
27618;SDS011;15039;50.830;4.730;2022-12-18T16:52:03;22.50;;;13.80;;
27618;SDS011;15039;50.830;4.730;2022-12-18T16:54:29;26.88;;;17.00;;
27618;SDS011;15039;50.830;4.730;2022-12-18T16:56:55;31.83;;;19.05;;